Sugarloaf Regional (B21)
Carrabassett, ME
Field Elevation: 885
Lat: 45°05.12N  Long: 70°12.98W
CTAF/Unicom Freq: 122.8000
   
    
Weather Advisories
4/23/2014 09:24 Z
Altimeter 29.41" Hg
Wind 120° @ 0 KT
Gusts --
Visibility 1 SM
Temperature 4° C (39° F)
Dewpoint 3° C (37° F)
Relative Humidity 97%
Density Altitude --
Condensation Altitude 1,200 feet
  Wind and Runways
Indicated Runway = 17
History
 
 
More Info
All DigiWx sites map
 
NOAA Forecast
 
Airport IQ 5010
(39N) Princeton, NJ
(PN44) Upper Gwynedd Heliport
 
about DigiWx
 
FAA Disclaimer: The data displayed is for advisory purposes only and is not to be used for flight planning or operations. For official data, please call (not available) to hear the current automated AWOS voice message.
  METAR B21 230924Z AUTO 12000KT 1SM 04/03 A2941